Time;durP1;ratioP1;P1;durP2;ratioP2;P2;SDS_P1;SDS_P2;PMS_P1;PMS_P2;Temp;Humidity;BMP_temperature;BMP_pressure;BME280_temperature;BME280_humidity;BME280_pressure;Samples;Min_cycle;Max_cycle;Signal;HPM_P1;HPM_P2
2021/07/09 00:01:56;;;;;;;11.10;10.13;;;16.60;99.90;;;;;;5109323;28;20512;-73
2021/07/09 00:04:23;;;;;;;10.97;9.90;;;16.60;99.90;;;;;;5110149;28;20431;-73
2021/07/09 00:06:49;;;;;;;11.33;10.33;;;16.60;99.90;;;;;;5110045;28;20204;-73
2021/07/09 00:09:16;;;;;;;12.20;10.97;;;16.60;99.90;;;;;;5091455;28;20444;-73
2021/07/09 00:11:46;;;;;;;13.10;11.70;;;16.60;99.90;;;;;;5096051;28;20491;-73
2021/07/09 00:14:12;;;;;;;12.17;11.00;;;16.60;99.90;;;;;;5109920;28;20431;-72
2021/07/09 00:16:38;;;;;;;13.13;11.80;;;16.60;99.90;;;;;;5109958;28;20426;-73
2021/07/09 00:19:05;;;;;;;12.70;11.60;;;16.60;99.90;;;;;;5109875;28;20396;-73
2021/07/09 00:21:32;;;;;;;13.30;12.13;;;16.60;99.90;;;;;;5109655;28;20521;-73
2021/07/09 00:23:59;;;;;;;16.20;12.43;;;16.60;99.90;;;;;;5109681;28;20393;-73
2021/07/09 00:26:25;;;;;;;12.27;11.07;;;16.60;99.90;;;;;;5109622;28;20440;-72
2021/07/09 00:28:51;;;;;;;12.70;11.50;;;16.60;99.90;;;;;;5107732;28;20443;-73
2021/07/09 00:31:16;;;;;;;13.70;12.50;;;16.70;99.90;;;;;;5092529;28;20416;-73
2021/07/09 00:33:42;;;;;;;14.27;12.80;;;16.60;99.90;;;;;;5109543;28;20142;-73
2021/07/09 00:36:08;;;;;;;11.80;10.73;;;16.70;99.90;;;;;;5109447;28;20169;-73
2021/07/09 00:38:33;;;;;;;12.47;11.37;;;16.60;99.90;;;;;;5109361;28;20520;-73
2021/07/09 00:40:59;;;;;;;17.40;12.20;;;16.60;99.90;;;;;;5109145;28;20223;-73
2021/07/09 00:43:25;;;;;;;15.00;13.47;;;16.60;99.90;;;;;;5109786;28;20308;-73
2021/07/09 00:45:50;;;;;;;13.93;12.63;;;16.60;99.90;;;;;;5108250;28;20535;-72
2021/07/09 00:48:16;;;;;;;14.67;13.33;;;16.60;99.90;;;;;;5109250;28;20487;-72
2021/07/09 00:50:42;;;;;;;13.70;12.33;;;16.60;99.90;;;;;;5109155;28;20392;-73
2021/07/09 00:53:07;;;;;;;14.90;13.43;;;16.60;99.90;;;;;;5109079;28;20162;-73
2021/07/09 00:55:34;;;;;;;15.13;13.60;;;16.60;99.90;;;;;;5109091;28;20207;-73
2021/07/09 00:58:01;;;;;;;13.83;12.43;;;16.60;99.90;;;;;;5104046;28;20166;-73
2021/07/09 01:00:29;;;;;;;13.03;11.87;;;16.60;99.90;;;;;;5077697;28;20957;-73
2021/07/09 01:02:55;;;;;;;13.10;11.70;;;16.60;99.90;;;;;;5075582;28;20434;-73
2021/07/09 01:05:21;;;;;;;13.13;11.73;;;16.60;99.90;;;;;;5075051;28;20402;-73
2021/07/09 01:07:46;;;;;;;15.03;13.53;;;16.60;99.90;;;;;;5074922;28;20433;-73
2021/07/09 01:10:15;;;;;;;13.53;12.30;;;16.60;99.90;;;;;;5075050;28;20521;-73
2021/07/09 01:12:40;;;;;;;12.77;11.63;;;16.60;99.90;;;;;;5075257;28;20164;-72
2021/07/09 01:15:08;;;;;;;13.20;12.00;;;16.60;99.90;;;;;;5074945;28;20731;-73
2021/07/09 01:17:35;;;;;;;15.73;12.93;;;16.60;99.90;;;;;;5074892;28;20156;-73
2021/07/09 01:20:02;;;;;;;12.97;11.63;;;16.60;99.90;;;;;;5075306;28;20463;-73
2021/07/09 01:22:29;;;;;;;14.80;13.40;;;16.60;99.90;;;;;;5074743;28;20738;-73
2021/07/09 01:24:54;;;;;;;14.67;13.23;;;16.60;99.90;;;;;;5074721;28;20393;-73
2021/07/09 01:27:20;;;;;;;15.80;13.20;;;16.60;99.90;;;;;;5075014;28;20794;-72
2021/07/09 01:29:47;;;;;;;13.83;12.40;;;16.60;99.90;;;;;;5074872;28;20586;-72
2021/07/09 01:32:13;;;;;;;14.80;13.40;;;16.60;99.90;;;;;;5081760;28;20183;-72
2021/07/09 01:34:38;;;;;;;14.83;13.37;;;16.60;99.90;;;;;;5074456;28;20390;-72
2021/07/09 01:37:19;;;;;;;13.23;11.93;;;16.50;99.90;;;;;;5083661;28;20531;-72
2021/07/09 01:39:45;;;;;;;13.67;12.37;;;16.50;99.90;;;;;;5094866;28;20163;-72
2021/07/09 01:42:11;;;;;;;16.10;14.40;;;16.50;99.90;;;;;;5094748;28;20397;-72
2021/07/09 01:44:38;;;;;;;15.23;13.30;;;16.60;99.90;;;;;;5094299;28;20397;-72
2021/07/09 01:47:05;;;;;;;15.13;13.53;;;16.60;99.90;;;;;;5094398;28;20460;-72
2021/07/09 01:49:31;;;;;;;15.67;14.17;;;16.60;99.90;;;;;;5094501;28;20870;-72
2021/07/09 01:51:57;;;;;;;15.77;13.90;;;16.60;99.90;;;;;;5094414;28;20428;-72
2021/07/09 01:54:23;;;;;;;16.03;14.43;;;16.60;99.90;;;;;;5081971;28;20914;-72
2021/07/09 01:56:49;;;;;;;15.67;14.03;;;16.60;99.90;;;;;;5074426;28;20499;-72
2021/07/09 01:59:15;;;;;;;15.40;13.93;;;16.60;99.90;;;;;;5073983;28;20475;-72
2021/07/09 02:01:40;;;;;;;14.60;13.20;;;16.60;99.90;;;;;;5081710;28;20412;-73
2021/07/09 02:04:06;;;;;;;13.90;12.50;;;16.60;99.90;;;;;;5093867;28;20534;-72
2021/07/09 02:06:32;;;;;;;14.53;13.20;;;16.60;99.90;;;;;;5093905;28;20240;-72
2021/07/09 02:08:57;;;;;;;14.63;13.10;;;16.60;99.90;;;;;;5094203;28;20209;-72
2021/07/09 02:11:24;;;;;;;14.83;13.27;;;16.60;99.90;;;;;;5081007;28;20228;-72
2021/07/09 02:13:50;;;;;;;15.40;14.00;;;16.60;99.90;;;;;;5073778;28;20226;-72
2021/07/09 02:16:15;;;;;;;16.67;14.77;;;16.60;99.90;;;;;;5073693;28;20424;-72
2021/07/09 02:18:41;;;;;;;15.93;14.37;;;16.60;99.90;;;;;;5073656;28;20532;-72
2021/07/09 02:21:06;;;;;;;19.90;14.80;;;16.60;99.90;;;;;;5073551;28;20159;-72
2021/07/09 02:23:32;;;;;;;17.60;14.47;;;16.60;99.90;;;;;;5073947;28;20701;-72
2021/07/09 02:25:57;;;;;;;17.63;14.53;;;16.60;99.90;;;;;;5073712;28;20300;-72
2021/07/09 02:28:23;;;;;;;17.20;14.50;;;16.60;99.90;;;;;;5074208;28;20568;-72
2021/07/09 02:30:49;;;;;;;17.47;15.63;;;16.60;99.90;;;;;;5073970;28;20210;-71
2021/07/09 02:33:14;;;;;;;17.63;16.00;;;16.60;99.90;;;;;;5081348;28;20180;-71
2021/07/09 02:35:40;;;;;;;16.77;15.07;;;16.60;99.90;;;;;;5073261;28;20151;-71
2021/07/09 02:38:07;;;;;;;17.93;14.20;;;16.60;99.90;;;;;;5073840;28;20152;-71
2021/07/09 02:40:34;;;;;;;15.37;13.87;;;16.60;99.90;;;;;;5073787;28;20422;-71
2021/07/09 02:43:02;;;;;;;17.93;16.13;;;16.60;99.90;;;;;;5073600;28;20394;-72
2021/07/09 02:45:28;;;;;;;16.47;14.67;;;16.60;99.90;;;;;;5085686;28;20412;-73
2021/07/09 02:47:54;;;;;;;17.60;15.90;;;16.60;99.90;;;;;;5093190;28;20972;-73
2021/07/09 02:50:23;;;;;;;19.23;17.33;;;16.60;99.90;;;;;;5093764;28;20433;-73
2021/07/09 02:52:50;;;;;;;17.83;16.13;;;16.60;99.90;;;;;;5093303;28;20444;-72
2021/07/09 02:55:17;;;;;;;19.10;17.07;;;16.60;99.90;;;;;;5093871;28;20412;-72
2021/07/09 02:57:43;;;;;;;19.30;16.93;;;16.60;99.90;;;;;;5093052;28;20400;-72
2021/07/09 03:00:12;;;;;;;21.37;18.00;;;16.60;99.90;;;;;;5093005;28;20434;-73
2021/07/09 03:02:38;;;;;;;18.93;16.27;;;16.60;99.90;;;;;;5078238;28;20180;-73
2021/07/09 03:05:04;;;;;;;20.50;17.33;;;16.60;99.90;;;;;;5072851;28;20805;-72
2021/07/09 03:07:30;;;;;;;21.90;18.30;;;16.60;99.90;;;;;;5072676;28;20249;-72
2021/07/09 03:09:56;;;;;;;20.57;18.50;;;16.60;99.90;;;;;;5072783;28;20430;-72
2021/07/09 03:12:21;;;;;;;17.70;15.90;;;16.60;99.90;;;;;;5072669;28;20167;-72
2021/07/09 03:14:47;;;;;;;19.50;17.40;;;16.60;99.90;;;;;;5072634;28;20159;-72
2021/07/09 03:17:12;;;;;;;18.57;16.77;;;16.60;99.90;;;;;;5072588;28;20247;-72
2021/07/09 03:19:38;;;;;;;19.43;17.40;;;16.60;99.90;;;;;;5073263;28;20183;-72
2021/07/09 03:22:04;;;;;;;20.87;18.67;;;16.60;99.90;;;;;;5072274;28;20183;-72
2021/07/09 03:24:29;;;;;;;20.93;18.83;;;16.60;99.90;;;;;;5072691;28;20238;-72
2021/07/09 03:26:55;;;;;;;23.30;18.53;;;16.60;99.90;;;;;;5072786;28;20195;-72
2021/07/09 03:29:20;;;;;;;24.13;20.57;;;16.60;99.90;;;;;;5072580;28;20616;-72
2021/07/09 03:31:46;;;;;;;23.50;19.40;;;16.60;99.90;;;;;;5078219;28;20210;-72
2021/07/09 03:34:11;;;;;;;20.07;17.90;;;16.70;99.90;;;;;;5072453;28;20187;-72
2021/07/09 03:36:43;;;;;;;21.50;19.20;;;16.70;99.90;;;;;;5086396;28;20560;-72
2021/07/09 03:39:10;;;;;;;25.10;19.27;;;16.70;99.90;;;;;;5092876;28;20184;-72
2021/07/09 03:41:36;;;;;;;27.67;19.37;;;16.70;99.90;;;;;;5092485;28;20393;-72
2021/07/09 03:44:01;;;;;;;20.60;17.63;;;16.70;99.90;;;;;;5089407;28;20424;-72
2021/07/09 03:46:27;;;;;;;23.27;18.50;;;16.70;99.90;;;;;;5089731;28;20210;-72
2021/07/09 03:48:52;;;;;;;20.40;18.30;;;16.70;99.90;;;;;;5090605;28;20171;-72
2021/07/09 03:51:18;;;;;;;19.30;17.37;;;16.70;99.90;;;;;;5090516;28;20503;-72
2021/07/09 03:53:43;;;;;;;22.50;17.97;;;16.70;99.90;;;;;;5089770;28;20175;-73
2021/07/09 03:56:09;;;;;;;20.67;18.50;;;16.70;99.90;;;;;;5090387;28;20166;-72
2021/07/09 03:58:34;;;;;;;18.63;16.73;;;16.70;99.90;;;;;;5090347;28;20190;-72
2021/07/09 04:01:01;;;;;;;21.30;19.03;;;16.70;99.90;;;;;;5089491;28;20204;-72
2021/07/09 04:03:26;;;;;;;23.80;20.13;;;16.70;99.90;;;;;;5071114;28;20172;-72
2021/07/09 04:05:52;;;;;;;25.03;20.97;;;16.70;99.90;;;;;;5072298;28;20398;-72
2021/07/09 04:08:17;;;;;;;24.60;21.07;;;16.70;99.90;;;;;;5072180;28;20555;-72
2021/07/09 04:10:43;;;;;;;27.70;23.00;;;16.70;99.90;;;;;;5072767;28;20246;-72
2021/07/09 04:13:08;;;;;;;24.97;22.40;;;16.70;99.90;;;;;;5072104;28;20160;-72
2021/07/09 04:15:34;;;;;;;22.70;20.20;;;16.70;99.90;;;;;;5072178;28;20566;-72
2021/07/09 04:18:00;;;;;;;23.60;20.70;;;16.70;99.90;;;;;;5072090;28;20160;-72
2021/07/09 04:20:25;;;;;;;21.67;19.47;;;16.70;99.90;;;;;;5094792;28;20186;-72
2021/07/09 04:22:54;;;;;;;28.43;21.83;;;16.70;99.90;;;;;;5090391;28;20189;-72
2021/07/09 04:25:20;;;;;;;21.63;19.33;;;16.80;99.90;;;;;;5091554;28;20178;-72
2021/07/09 04:27:46;;;;;;;24.03;21.40;;;16.80;99.90;;;;;;5079133;28;20464;-72
2021/07/09 04:30:12;;;;;;;24.33;20.30;;;16.80;99.90;;;;;;5080398;28;20164;-72
2021/07/09 04:32:37;;;;;;;24.33;21.77;;;16.80;99.90;;;;;;5083028;28;20171;-72
2021/07/09 04:35:04;;;;;;;23.10;19.67;;;16.80;99.90;;;;;;5081125;28;20564;-72
2021/07/09 04:37:30;;;;;;;24.63;21.50;;;16.80;99.90;;;;;;5075653;28;20167;-72
2021/07/09 04:39:56;;;;;;;22.60;20.20;;;16.80;99.90;;;;;;5075507;28;20398;-72
2021/07/09 04:42:22;;;;;;;25.97;21.30;;;16.80;99.90;;;;;;5075559;28;20414;-72
2021/07/09 04:44:47;;;;;;;25.83;22.27;;;16.80;99.90;;;;;;5088555;28;20799;-72
2021/07/09 04:47:13;;;;;;;24.57;22.10;;;16.90;99.90;;;;;;5095070;28;20198;-72
2021/07/09 04:49:39;;;;;;;24.40;21.93;;;16.90;99.90;;;;;;5096226;28;20177;-72
2021/07/09 04:52:06;;;;;;;23.07;20.87;;;16.90;99.90;;;;;;5094592;28;20159;-72
2021/07/09 04:54:31;;;;;;;25.20;21.40;;;16.90;99.90;;;;;;5095028;28;20412;-72
2021/07/09 04:56:57;;;;;;;28.37;22.90;;;16.90;99.90;;;;;;5095649;28;20388;-72
2021/07/09 04:59:22;;;;;;;22.40;20.00;;;16.80;99.90;;;;;;5094215;28;20277;-72
2021/07/09 05:01:48;;;;;;;25.60;22.93;;;16.80;99.90;;;;;;5081233;28;20670;-72
2021/07/09 05:04:13;;;;;;;25.20;20.73;;;16.80;99.90;;;;;;5089767;28;20174;-72
2021/07/09 05:06:39;;;;;;;28.13;21.70;;;16.80;99.90;;;;;;5075145;28;20683;-72
2021/07/09 05:09:05;;;;;;;32.80;23.00;;;16.90;99.90;;;;;;5095296;28;20584;-72
2021/07/09 05:11:32;;;;;;;32.60;23.07;;;16.90;99.90;;;;;;5095630;28;20159;-72
2021/07/09 05:13:58;;;;;;;28.87;25.03;;;16.90;99.90;;;;;;5094935;28;20878;-72
2021/07/09 05:16:23;;;;;;;29.80;26.70;;;16.90;99.90;;;;;;5095159;28;20397;-72
2021/07/09 05:18:49;;;;;;;29.97;25.83;;;16.90;99.90;;;;;;5079617;28;20262;-72
2021/07/09 05:21:14;;;;;;;30.40;27.00;;;17.00;99.90;;;;;;5074866;28;20620;-72
2021/07/09 05:23:40;;;;;;;31.50;27.77;;;17.00;99.90;;;;;;5074776;28;20170;-72
2021/07/09 05:26:05;;;;;;;32.77;27.27;;;17.00;99.90;;;;;;5114581;28;20174;-72
2021/07/09 05:28:31;;;;;;;34.70;28.13;;;17.10;99.90;;;;;;5115495;28;20154;-72
2021/07/09 05:30:57;;;;;;;34.40;27.10;;;17.10;99.90;;;;;;5115393;28;20199;-72
2021/07/09 05:33:22;;;;;;;33.70;27.97;;;17.10;99.90;;;;;;5094819;28;20719;-72
2021/07/09 05:35:48;;;;;;;33.07;27.93;;;17.20;99.90;;;;;;5093800;28;20541;-72
2021/07/09 05:38:14;;;;;;;37.13;31.97;;;17.20;99.90;;;;;;5095140;28;20200;-72
2021/07/09 05:40:41;;;;;;;38.87;32.63;;;17.30;99.90;;;;;;5079463;28;20425;-72
2021/07/09 05:43:07;;;;;;;42.13;32.73;;;17.30;99.90;;;;;;5074205;28;20160;-72
2021/07/09 05:45:32;;;;;;;44.17;35.37;;;17.30;99.90;;;;;;5084144;28;20420;-72
2021/07/09 05:47:58;;;;;;;47.07;36.03;;;17.30;99.90;;;;;;5074602;28;20211;-72
2021/07/09 05:50:25;;;;;;;46.80;34.23;;;17.30;99.90;;;;;;5074259;28;20569;-72
2021/07/09 05:52:52;;;;;;;51.07;39.63;;;17.40;99.90;;;;;;5074699;28;20270;-72
2021/07/09 05:55:17;;;;;;;48.40;37.93;;;17.40;99.90;;;;;;5077085;28;20421;-72
2021/07/09 05:57:43;;;;;;;48.20;38.13;;;17.40;99.90;;;;;;5086312;28;20486;-72
2021/07/09 06:00:10;;;;;;;57.40;40.97;;;17.50;99.90;;;;;;5090618;28;20679;-72
2021/07/09 06:02:36;;;;;;;50.50;43.50;;;17.50;99.90;;;;;;5085633;28;20264;-72
2021/07/09 06:05:03;;;;;;;53.17;41.00;;;17.50;99.90;;;;;;5088037;28;20426;-72
2021/07/09 06:07:28;;;;;;;56.50;42.63;;;17.60;99.90;;;;;;5082867;28;20453;-72
2021/07/09 06:09:54;;;;;;;50.87;43.50;;;17.60;99.90;;;;;;5090362;28;20428;-72
2021/07/09 06:12:19;;;;;;;53.70;41.40;;;17.60;99.90;;;;;;5085179;28;20167;-72
2021/07/09 06:14:45;;;;;;;48.10;42.73;;;17.60;99.90;;;;;;5074052;28;20159;-72
2021/07/09 06:17:10;;;;;;;55.57;46.40;;;17.70;99.90;;;;;;5074407;28;20148;-72
2021/07/09 06:19:36;;;;;;;53.53;43.60;;;17.70;99.90;;;;;;5076892;28;20178;-72
2021/07/09 06:22:02;;;;;;;49.33;43.73;;;17.70;99.90;;;;;;5089954;28;20189;-72
2021/07/09 06:24:27;;;;;;;56.00;45.23;;;17.80;99.90;;;;;;5083967;28;20498;-72
2021/07/09 06:26:53;;;;;;;52.67;43.63;;;17.80;99.90;;;;;;5077034;28;20199;-72
2021/07/09 06:29:19;;;;;;;56.27;45.20;;;17.80;99.90;;;;;;5092339;28;20663;-72
2021/07/09 06:31:44;;;;;;;54.87;43.23;;;17.80;99.90;;;;;;5093713;28;20178;-72
2021/07/09 06:34:10;;;;;;;67.83;49.60;;;17.90;99.90;;;;;;5080397;28;20210;-72
2021/07/09 06:36:35;;;;;;;64.20;48.53;;;17.90;99.90;;;;;;5082244;28;20174;-72
2021/07/09 06:39:01;;;;;;;66.63;50.17;;;18.00;99.90;;;;;;5081240;28;20216;-72
2021/07/09 06:41:27;;;;;;;61.97;48.17;;;18.10;99.90;;;;;;5080248;28;20227;-72
2021/07/09 06:43:53;;;;;;;67.43;50.40;;;18.10;99.90;;;;;;5078829;28;20178;-72
2021/07/09 06:46:19;;;;;;;66.20;48.93;;;18.10;99.90;;;;;;5081353;28;20217;-72
2021/07/09 06:48:44;;;;;;;68.57;52.97;;;18.20;99.90;;;;;;5099436;28;20172;-72
2021/07/09 06:51:11;;;;;;;66.57;54.17;;;18.20;99.90;;;;;;5073269;28;20412;-72
2021/07/09 06:53:37;;;;;;;67.70;51.50;;;18.30;99.90;;;;;;5072852;28;20156;-72
2021/07/09 06:56:04;;;;;;;76.07;54.40;;;18.20;99.90;;;;;;5078728;28;20424;-72
2021/07/09 06:58:30;;;;;;;71.37;52.73;;;18.30;99.90;;;;;;5080670;28;20441;-72
2021/07/09 07:00:55;;;;;;;66.67;52.63;;;18.40;99.90;;;;;;5074951;28;20444;-72
2021/07/09 07:03:21;;;;;;;69.83;51.90;;;18.40;99.90;;;;;;5074058;28;20660;-72
2021/07/09 07:05:46;;;;;;;69.90;53.53;;;18.50;99.90;;;;;;5085107;28;20180;-72
2021/07/09 07:10:51;;;;;;;67.90;51.90;;;18.50;99.90;;;;;;5062577;28;20575;-72
2021/07/09 07:13:18;;;;;;;72.37;51.27;;;18.50;99.90;;;;;;5049562;28;20407;-72
2021/07/09 07:15:44;;;;;;;64.27;52.53;;;18.50;99.90;;;;;;5050397;28;20432;-72
2021/07/09 07:18:12;;;;;;;67.77;52.57;;;18.50;99.90;;;;;;5048958;28;20423;-72
2021/07/09 07:20:41;;;;;;;65.33;51.07;;;18.50;99.90;;;;;;5049705;28;20540;-72
2021/07/09 07:23:07;;;;;;;63.20;46.33;;;18.50;99.90;;;;;;5046614;28;20498;-72
2021/07/09 07:25:33;;;;;;;61.37;46.10;;;18.50;99.90;;;;;;5048349;28;20429;-72
2021/07/09 07:28:00;;;;;;;59.40;44.47;;;18.50;99.90;;;;;;5049643;28;20399;-72
2021/07/09 07:30:26;;;;;;;59.63;44.80;;;18.50;99.90;;;;;;5049166;28;20290;-72
2021/07/09 07:32:52;;;;;;;63.60;46.00;;;18.50;99.90;;;;;;5048479;28;20410;-72
2021/07/09 07:35:17;;;;;;;68.90;46.03;;;18.50;99.90;;;;;;5049022;28;20915;-72
2021/07/09 07:37:43;;;;;;;57.13;43.13;;;18.50;99.90;;;;;;5048998;28;20199;-72
2021/07/09 07:40:09;;;;;;;58.43;44.80;;;18.60;99.90;;;;;;5049136;28;20164;-72
2021/07/09 07:42:34;;;;;;;59.60;44.57;;;18.60;99.90;;;;;;5049799;28;20176;-72
2021/07/09 07:45:00;;;;;;;65.40;46.13;;;18.60;99.90;;;;;;5048695;28;20277;-72
2021/07/09 07:47:25;;;;;;;62.27;46.00;;;18.50;99.90;;;;;;5047205;28;20675;-72
2021/07/09 07:49:51;;;;;;;60.13;44.87;;;18.60;99.90;;;;;;5061744;28;20196;-72
2021/07/09 07:52:17;;;;;;;59.93;46.50;;;18.70;99.90;;;;;;5053607;28;20219;-72
2021/07/09 07:54:42;;;;;;;55.03;42.00;;;18.70;99.90;;;;;;5050161;28;20180;-71
2021/07/09 07:57:08;;;;;;;55.93;43.10;;;18.80;99.90;;;;;;5057956;28;20426;-72
2021/07/09 07:59:34;;;;;;;53.30;43.30;;;18.90;99.90;;;;;;5046469;28;20196;-72
2021/07/09 08:01:59;;;;;;;56.87;45.07;;;19.10;99.90;;;;;;5042450;28;20660;-72
2021/07/09 08:04:24;;;;;;;59.00;45.43;;;19.20;99.90;;;;;;5051958;28;20185;-72
2021/07/09 08:06:50;;;;;;;53.13;42.00;;;19.30;99.90;;;;;;5049075;28;20187;-72
2021/07/09 08:09:17;;;;;;;50.40;39.63;;;19.50;99.90;;;;;;5042350;28;20218;-72
2021/07/09 08:11:43;;;;;;;52.97;40.83;;;19.70;99.90;;;;;;5056896;28;20195;-72
2021/07/09 08:14:08;;;;;;;50.23;38.33;;;19.90;99.90;;;;;;5039751;28;20972;-72
2021/07/09 08:16:34;;;;;;;44.67;36.60;;;20.20;99.90;;;;;;5045712;28;20188;-72
2021/07/09 08:19:00;;;;;;;48.33;37.20;;;20.50;99.90;;;;;;5045062;28;20191;-72
2021/07/09 08:21:26;;;;;;;43.30;37.13;;;20.80;99.90;;;;;;5036435;28;20177;-72
2021/07/09 08:23:52;;;;;;;35.50;31.60;;;21.20;99.90;;;;;;5033503;28;20442;-72
2021/07/09 08:26:18;;;;;;;37.27;33.37;;;21.70;99.90;;;;;;5035347;28;20188;-72
2021/07/09 08:28:44;;;;;;;33.17;29.60;;;22.40;99.90;;;;;;5025979;28;20434;-72
2021/07/09 08:31:09;;;;;;;32.20;28.83;;;23.10;99.90;;;;;;5034387;28;20164;-72
2021/07/09 08:33:35;;;;;;;29.23;23.77;;;23.90;99.90;;;;;;5033964;28;20415;-72
2021/07/09 08:36:01;;;;;;;23.10;20.07;;;25.00;99.90;;;;;;5038774;28;20254;-72
2021/07/09 08:38:27;;;;;;;27.40;21.50;;;26.20;99.90;;;;;;5046075;28;20188;-72
2021/07/09 08:40:52;;;;;;;25.80;20.57;;;27.40;99.90;;;;;;5034862;28;20854;-73
2021/07/09 08:43:18;;;;;;;22.23;19.07;;;28.40;99.30;;;;;;5034647;28;20423;-73
2021/07/09 08:45:44;;;;;;;20.97;18.57;;;29.10;96.50;;;;;;5034271;28;20742;-73
2021/07/09 08:48:13;;;;;;;21.93;19.80;;;29.70;93.40;;;;;;5033082;28;20177;-73
2021/07/09 08:50:39;;;;;;;21.40;19.40;;;30.30;90.50;;;;;;5032003;28;20855;-73
2021/07/09 08:53:05;;;;;;;19.63;17.83;;;30.60;86.60;;;;;;5034219;28;20443;-73
2021/07/09 08:55:30;;;;;;;21.87;19.60;;;30.50;84.00;;;;;;5034406;28;20172;-73
2021/07/09 08:57:56;;;;;;;23.07;20.60;;;30.30;84.20;;;;;;5034309;28;20181;-73
2021/07/09 09:02:58;;;;;;;20.20;18.33;;;30.00;83.90;;;;;;5089274;28;20636;-73
2021/07/09 09:05:26;;;;;;;19.23;16.30;;;29.80;85.40;;;;;;5088432;28;20405;-73
2021/07/09 09:08:08;;;;;;;17.37;15.73;;;30.40;83.50;;;;;;5081513;28;20244;-73
2021/07/09 09:10:43;;;;;;;18.10;16.40;;;30.80;80.90;;;;;;5077627;28;20417;-73
2021/07/09 09:18:40;;;;;;;17.10;15.50;;;31.20;73.00;;;;;;5108209;27;20574;-75
2021/07/09 09:21:22;;;;;;;15.10;13.70;;;30.70;71.60;;;;;;5090669;28;20965;-75
2021/07/09 09:32:06;;;;;;;14.50;12.97;;;28.30;78.50;;;;;;5059801;28;20531;-73
2021/07/09 09:34:42;;;;;;;15.27;12.90;;;27.60;82.20;;;;;;5037918;28;20430;-73
2021/07/09 09:37:09;;;;;;;13.30;11.67;;;27.50;82.60;;;;;;5038490;28;20465;-74
2021/07/09 09:39:36;;;;;;;15.13;13.53;;;27.40;84.80;;;;;;5039728;28;20419;-74
2021/07/09 09:45:00;;;;;;;13.70;12.50;;;27.80;85.90;;;;;;5063266;28;20524;-75
2021/07/09 09:47:29;;;;;;;15.57;13.30;;;28.10;82.60;;;;;;5066043;28;20994;-75
2021/07/09 09:49:57;;;;;;;13.03;11.70;;;28.20;84.30;;;;;;5050383;28;20916;-75
2021/07/09 10:01:08;;;;;;;9.47;8.57;;;28.40;80.80;;;;;;5054417;28;20611;-75
2021/07/09 10:03:34;;;;;;;8.00;7.30;;;28.30;77.60;;;;;;5063981;28;20424;-74
2021/07/09 10:06:01;;;;;;;9.37;8.47;;;28.20;78.70;;;;;;5059353;28;20159;-75
2021/07/09 10:08:27;;;;;;;7.63;6.90;;;27.90;78.10;;;;;;5047773;28;20246;-75
2021/07/09 10:10:53;;;;;;;8.47;6.63;;;27.60;78.10;;;;;;5047493;28;20426;-75
2021/07/09 10:13:22;;;;;;;7.27;6.17;;;27.40;78.30;;;;;;5043290;28;20441;-74
2021/07/09 10:15:50;;;;;;;7.93;6.60;;;27.30;78.00;;;;;;5046895;28;20281;-74
2021/07/09 10:18:17;;;;;;;7.63;6.90;;;27.30;78.80;;;;;;5048690;28;20515;-75
2021/07/09 10:20:44;;;;;;;9.67;7.27;;;27.40;79.00;;;;;;5048672;28;20502;-75
2021/07/09 10:23:15;;;;;;;9.20;8.30;;;27.50;80.10;;;;;;5048604;28;20426;-75
2021/07/09 10:25:44;;;;;;;8.37;7.53;;;27.50;81.60;;;;;;5054508;28;20473;-75
2021/07/09 10:28:10;;;;;;;9.83;7.20;;;27.30;82.00;;;;;;5048405;28;20421;-75
2021/07/09 10:30:39;;;;;;;7.77;7.03;;;27.20;82.00;;;;;;5047475;28;20780;-75
2021/07/09 10:36:27;;;;;;;9.70;8.90;;;26.90;83.70;;;;;;5147236;27;20653;-73
2021/07/09 10:38:54;;;;;;;9.50;8.03;;;26.70;85.50;;;;;;5133282;27;20422;-73
2021/07/09 10:41:22;;;;;;;7.80;7.10;;;26.40;84.60;;;;;;5125844;28;20429;-73
2021/07/09 10:44:11;;;;;;;10.13;8.90;;;26.00;86.10;;;;;;5126414;28;20398;-73
2021/07/09 10:46:36;;;;;;;10.83;9.83;;;25.70;90.00;;;;;;5111259;28;20485;-73
2021/07/09 10:49:02;;;;;;;10.90;9.87;;;25.40;90.40;;;;;;5126419;28;20477;-73
2021/07/09 10:51:51;;;;;;;11.53;8.93;;;25.20;91.20;;;;;;5128057;28;20156;-73
2021/07/09 10:54:27;;;;;;;8.70;7.93;;;25.10;91.80;;;;;;5113895;28;20278;-73
2021/07/09 10:57:17;;;;;;;10.17;8.20;;;25.00;92.80;;;;;;5128815;28;20394;-73
2021/07/09 11:00:23;;;;;;;8.53;7.63;;;24.90;93.40;;;;;;5109330;28;20442;-73
2021/07/09 11:03:05;;;;;;;7.80;7.20;;;24.70;94.00;;;;;;5102569;28;20510;-73
2021/07/09 11:21:53;;;;;;;8.83;8.13;;;23.10;99.90;;;;;;5144273;27;20640;-74
2021/07/09 11:27:00;;;;;;;7.83;7.13;;;22.90;99.90;;;;;;5059469;28;20611;-74
2021/07/09 11:32:29;;;;;;;7.47;6.13;;;22.60;99.90;;;;;;5056326;28;20611;-73
2021/07/09 11:34:56;;;;;;;7.30;6.60;;;22.50;99.90;;;;;;5050619;28;20927;-73
2021/07/09 11:37:27;;;;;;;7.90;7.20;;;22.50;99.90;;;;;;5049552;28;20187;-73
2021/07/09 11:39:57;;;;;;;9.90;8.90;;;22.40;99.90;;;;;;5048530;28;20394;-73
2021/07/09 11:42:24;;;;;;;9.03;7.80;;;22.40;99.90;;;;;;5049668;28;20452;-73
2021/07/09 11:47:31;;;;;;;9.60;8.13;;;22.30;99.90;;;;;;5067266;28;21149;-74
2021/07/09 11:50:00;;;;;;;8.50;7.30;;;22.20;99.90;;;;;;5034417;28;20433;-74
2021/07/09 11:55:13;;;;;;;8.47;7.57;;;22.20;99.90;;;;;;5090427;27;20602;-74
2021/07/09 11:57:40;;;;;;;11.07;7.60;;;22.20;99.90;;;;;;5081546;28;20420;-74
2021/07/09 12:02:44;;;;;;;10.20;7.17;;;22.10;99.90;;;;;;5130578;27;20576;-73
2021/07/09 12:05:12;;;;;;;10.07;8.00;;;22.00;99.90;;;;;;5111481;28;20438;-73
2021/07/09 12:07:41;;;;;;;9.80;7.80;;;22.00;99.90;;;;;;5110364;28;20428;-73
2021/07/09 12:10:13;;;;;;;8.50;7.67;;;22.00;99.90;;;;;;5110641;28;20399;-73
2021/07/09 12:15:24;;;;;;;10.20;7.70;;;21.90;99.90;;;;;;5108245;27;20566;-73
2021/07/09 12:17:53;;;;;;;9.03;7.90;;;21.90;99.90;;;;;;5110656;28;20418;-73
2021/07/09 12:23:06;;;;;;;7.90;7.23;;;21.80;99.90;;;;;;5063132;28;20523;-73
2021/07/09 12:28:14;;;;;;;9.27;8.07;;;21.80;99.90;;;;;;5090175;28;20939;-73
2021/07/09 12:30:44;;;;;;;8.83;6.80;;;21.80;99.90;;;;;;5090220;28;20405;-73
2021/07/09 12:33:13;;;;;;;9.57;7.70;;;21.80;99.90;;;;;;5075790;28;20496;-73
2021/07/09 12:35:39;;;;;;;8.20;7.40;;;21.80;99.90;;;;;;5078764;28;20447;-73
2021/07/09 12:38:06;;;;;;;8.87;7.53;;;21.90;99.90;;;;;;5079464;28;20420;-73
2021/07/09 12:45:59;;;;;;;7.53;6.33;;;22.00;99.90;;;;;;5069801;28;20645;-73
2021/07/09 12:48:43;;;;;;;7.73;5.97;;;22.20;99.90;;;;;;5069842;28;20758;-74
2021/07/09 12:51:37;;;;;;;8.83;6.60;;;22.40;99.90;;;;;;5068283;28;20382;-74
2021/07/09 12:54:05;;;;;;;5.83;5.27;;;22.60;99.90;;;;;;5054015;28;20883;-74
2021/07/09 12:56:33;;;;;;;12.00;6.97;;;22.80;99.90;;;;;;5050316;28;20568;-74
2021/07/09 13:01:38;;;;;;;5.80;5.30;;;23.00;99.90;;;;;;5067966;28;20540;-73
2021/07/09 13:04:22;;;;;;;5.70;5.10;;;23.40;99.90;;;;;;5057109;28;20426;-73
2021/07/09 13:06:48;;;;;;;5.67;5.17;;;23.50;99.90;;;;;;5059297;28;20502;-73
2021/07/09 13:09:17;;;;;;;5.40;4.53;;;23.60;99.90;;;;;;5051676;28;20419;-73
2021/07/09 13:11:46;;;;;;;4.90;4.47;;;23.50;99.90;;;;;;5052000;28;20862;-73
2021/07/09 13:16:58;;;;;;;4.80;4.40;;;23.50;99.90;;;;;;5107931;27;20543;-75
2021/07/09 13:19:29;;;;;;;4.93;4.30;;;23.50;99.90;;;;;;5121643;28;20920;-75
2021/07/09 13:21:55;;;;;;;5.13;4.00;;;23.50;99.90;;;;;;5114594;28;20179;-75
2021/07/09 13:24:29;;;;;;;6.60;4.47;;;23.50;99.90;;;;;;5109048;28;20419;-75
2021/07/09 13:26:55;;;;;;;5.40;3.83;;;23.50;99.90;;;;;;5108871;28;20422;-75
2021/07/09 13:32:01;;;;;;;5.03;3.40;;;23.50;99.90;;;;;;5052714;28;20533;-74
2021/07/09 13:34:28;;;;;;;4.33;3.80;;;23.40;99.90;;;;;;5050480;28;20402;-75
2021/07/09 13:36:54;;;;;;;3.60;3.30;;;23.40;99.90;;;;;;5048362;28;20414;-75
2021/07/09 13:39:20;;;;;;;4.33;3.83;;;23.30;99.90;;;;;;5048313;28;20985;-75
2021/07/09 13:41:46;;;;;;;4.90;4.10;;;23.30;99.90;;;;;;5049621;28;20172;-75
2021/07/09 13:44:12;;;;;;;4.13;3.37;;;23.30;99.90;;;;;;5049984;28;20508;-75
2021/07/09 13:46:41;;;;;;;4.07;3.77;;;23.20;99.90;;;;;;5050036;28;20911;-75
2021/07/09 13:49:07;;;;;;;5.30;4.77;;;23.20;99.90;;;;;;5049908;28;20422;-75
2021/07/09 13:51:33;;;;;;;5.60;4.80;;;23.20;99.90;;;;;;5050136;28;20838;-75
2021/07/09 13:53:58;;;;;;;5.83;5.30;;;23.10;99.90;;;;;;5049528;28;20164;-75
2021/07/09 13:56:25;;;;;;;6.77;6.17;;;23.10;99.90;;;;;;5049571;28;20149;-75